createdAt,value
2022-08-07T00:02:40.417Z,101936.91
2022-08-07T00:04:09.223Z,101926.81
2022-08-07T00:06:12.653Z,101927.78
2022-08-07T00:08:14.370Z,101933.38
2022-08-07T00:10:26.936Z,101929.63
2022-08-07T00:12:29.246Z,101925.06
2022-08-07T00:14:31.483Z,101921.44
2022-08-07T00:16:33.306Z,101929.53
2022-08-07T00:18:34.833Z,101925.06
2022-08-07T00:20:37.807Z,101923.22
2022-08-07T00:22:42.297Z,101916.81
2022-08-07T00:24:53.018Z,101914.91
2022-08-07T00:26:59.436Z,101916.69
2022-08-07T00:29:08.127Z,101916.41
2022-08-07T00:31:12.462Z,101919.28
2022-08-07T00:33:17.880Z,101912.22
2022-08-07T00:35:19.436Z,101916.75
2022-08-07T00:37:24.631Z,101907.72
2022-08-07T00:39:32.482Z,101905.78
2022-08-07T00:41:37.404Z,101901.34
2022-08-07T00:44:00.579Z,101900.34
2022-08-07T00:46:04.082Z,101900.31
2022-08-07T00:48:11.135Z,101902.78
2022-08-07T00:50:21.092Z,101893.97
2022-08-07T00:52:34.323Z,101897.41
2022-08-07T00:54:40.832Z,101898.78
2022-08-07T00:56:42.533Z,101897.63
2022-08-07T00:58:49.750Z,101891.91
2022-08-07T01:00:53.917Z,101894.19
2022-08-07T01:02:55.874Z,101881.53
2022-08-07T01:04:59.644Z,101886.59
2022-08-07T01:07:01.329Z,101880.38
2022-08-07T01:09:04.783Z,101878.38
2022-08-07T01:12:05.040Z,101878.63
2022-08-07T01:13:29.691Z,101883.28
2022-08-07T01:16:05.759Z,101882.19
2022-08-07T01:17:58.916Z,101883.22
2022-08-07T01:20:02.224Z,101875.97
2022-08-07T01:22:06.577Z,101884.78
2022-08-07T01:24:10.581Z,101880.88
2022-08-07T01:26:16.756Z,101875.59
2022-08-07T01:28:21.353Z,101873.09
2022-08-07T01:30:27.232Z,101875.59
2022-08-07T01:32:30.790Z,101874.41
2022-08-07T01:34:32.877Z,101870.19
2022-08-07T01:36:36.286Z,101872.75
2022-08-07T01:38:43.442Z,101868.31
2022-08-07T01:40:45.231Z,101877.03
2022-08-07T01:42:57.445Z,101876.34
2022-08-07T01:44:59.381Z,101869.34
2022-08-07T01:48:16.930Z,101878.91
2022-08-07T01:49:23.384Z,101877.22
2022-08-07T01:52:02.206Z,101883.25
2022-08-07T01:54:09.478Z,101872.75
2022-08-07T01:56:12.284Z,101882.50
2022-08-07T01:58:29.585Z,101876.16
2022-08-07T02:00:34.648Z,101876.97
2022-08-07T02:03:11.680Z,101878.72
2022-08-07T02:05:04.993Z,101877.25
2022-08-07T02:07:06.813Z,101876.81
2022-08-07T02:09:11.660Z,101875.97
2022-08-07T02:12:03.908Z,101878.53
2022-08-07T02:13:57.427Z,101875.94
2022-08-07T02:16:00.073Z,101882.94
2022-08-07T02:18:03.170Z,101882.38
2022-08-07T02:20:10.056Z,101880.47
2022-08-07T02:22:21.559Z,101883.97
2022-08-07T02:24:29.915Z,101884.44
2022-08-07T02:26:34.621Z,101875.06
2022-08-07T02:28:36.459Z,101878.91
2022-08-07T02:30:41.875Z,101871.28
2022-08-07T02:33:09.142Z,101876.69
2022-08-07T02:35:06.185Z,101875.94
2022-08-07T02:37:10.868Z,101870.38
2022-08-07T02:39:16.253Z,101872.41
2022-08-07T02:41:21.715Z,101872.06
2022-08-07T02:43:23.620Z,101875.13
2022-08-07T02:46:00.534Z,101876.03
2022-08-07T02:47:49.176Z,101875.28
2022-08-07T02:49:58.313Z,101870.09
2022-08-07T02:52:01.721Z,101875.63
2022-08-07T02:54:03.293Z,101863.00
2022-08-07T02:56:07.250Z,101870.69
2022-08-07T02:58:17.243Z,101866.66
2022-08-07T03:00:23.406Z,101868.28
2022-08-07T03:02:24.970Z,101865.56
2022-08-07T03:04:27.940Z,101863.50
2022-08-07T03:06:33.103Z,101861.31
2022-08-07T03:08:36.208Z,101853.44
2022-08-07T03:10:41.088Z,101863.56
2022-08-07T03:12:48.435Z,101859.34
2022-08-07T03:14:54.819Z,101861.69
2022-08-07T03:16:56.357Z,101854.09
2022-08-07T03:18:58.045Z,101853.38
2022-08-07T03:20:59.615Z,101860.91
2022-08-07T03:23:01.516Z,101850.81
2022-08-07T03:25:03.172Z,101849.78
2022-08-07T03:27:05.068Z,101854.22
2022-08-07T03:29:11.321Z,101855.06
2022-08-07T03:31:17.800Z,101852.19
2022-08-07T03:33:20.252Z,101856.97
2022-08-07T03:35:26.343Z,101853.06
2022-08-07T03:37:28.112Z,101855.94
2022-08-07T03:39:46.308Z,101866.06
2022-08-07T03:41:55.802Z,101858.47
2022-08-07T03:44:02.250Z,101856.03
2022-08-07T03:46:04.080Z,101861.81
2022-08-07T03:48:13.537Z,101867.94
2022-08-07T03:50:15.055Z,101865.72
2022-08-07T03:52:22.561Z,101870.31
2022-08-07T03:54:35.770Z,101860.91
2022-08-07T03:57:03.632Z,101864.09
2022-08-07T03:59:09.284Z,101869.63
2022-08-07T04:01:14.899Z,101866.25
2022-08-07T04:03:17.862Z,101864.75
2022-08-07T04:05:19.949Z,101874.28
2022-08-07T04:07:25.673Z,101864.13
2022-08-07T04:09:44.889Z,101864.59
2022-08-07T04:12:26.622Z,101859.41
2022-08-07T04:14:38.086Z,101855.34
2022-08-07T04:16:32.407Z,101852.97
2022-08-07T04:18:59.001Z,101868.75
2022-08-07T04:20:57.042Z,101862.84
2022-08-07T04:23:01.509Z,101860.53
2022-08-07T04:25:03.924Z,101862.94
2022-08-07T04:27:15.212Z,101854.06
2022-08-07T04:29:22.386Z,101856.91
2022-08-07T04:31:39.274Z,101866.59
2022-08-07T04:33:47.342Z,101859.34
2022-08-07T04:35:56.679Z,101857.44
2022-08-07T04:38:03.731Z,101860.06
2022-08-07T04:40:09.018Z,101850.38
2022-08-07T04:42:10.537Z,101861.16
2022-08-07T04:44:18.445Z,101866.94
2022-08-07T04:46:29.482Z,101862.84
2022-08-07T04:48:39.545Z,101857.91
2022-08-07T04:50:52.982Z,101863.41
2022-08-07T04:52:56.762Z,101866.97
2022-08-07T04:55:02.035Z,101868.25
2022-08-07T04:58:09.706Z,101860.91
2022-08-07T05:00:12.442Z,101868.00
2022-08-07T05:02:16.962Z,101875.78
2022-08-07T05:04:22.605Z,101882.50
2022-08-07T05:06:43.300Z,101878.88
2022-08-07T05:09:01.063Z,101879.28
2022-08-07T05:11:05.029Z,101881.97
2022-08-07T05:14:55.448Z,101892.13
2022-08-07T05:15:37.744Z,101892.94
2022-08-07T05:17:52.481Z,101893.06
2022-08-07T05:19:56.318Z,101894.84
2022-08-07T05:22:01.854Z,101895.88
2022-08-07T05:24:07.343Z,101903.31
2022-08-07T05:26:18.703Z,101911.88
2022-08-07T05:28:26.684Z,101902.94
2022-08-07T05:30:32.726Z,101904.94
2022-08-07T05:32:34.794Z,101912.38
2022-08-07T05:34:36.598Z,101912.31
2022-08-07T05:36:39.133Z,101910.63
2022-08-07T05:38:58.176Z,101913.03
2022-08-07T05:41:12.441Z,101912.72
2022-08-07T05:43:17.661Z,101913.22
2022-08-07T05:45:46.129Z,101913.84
2022-08-07T05:48:02.136Z,101913.47
2022-08-07T05:50:04.836Z,101912.59
2022-08-07T05:52:07.594Z,101914.13
2022-08-07T05:54:37.198Z,101906.41
2022-08-07T05:56:36.098Z,101916.06
2022-08-07T05:58:37.738Z,101912.44
2022-08-07T06:00:40.894Z,101915.19
2022-08-07T06:02:48.453Z,101911.41
2022-08-07T06:04:51.572Z,101913.44
2022-08-07T06:06:56.491Z,101915.28
2022-08-07T06:09:05.214Z,101916.66
2022-08-07T06:11:08.743Z,101915.53
2022-08-07T06:13:13.317Z,101908.69
2022-08-07T06:15:20.049Z,101908.91
2022-08-07T06:17:22.422Z,101918.94
2022-08-07T06:19:52.211Z,101912.59
2022-08-07T06:22:16.585Z,101910.81
2022-08-07T06:24:38.299Z,101909.38
2022-08-07T06:26:40.143Z,101912.69
2022-08-07T06:28:49.461Z,101908.28
2022-08-07T06:30:54.373Z,101910.22
2022-08-07T06:32:56.097Z,101912.34
2022-08-07T06:34:59.336Z,101911.47
2022-08-07T06:37:02.635Z,101906.22
2022-08-07T06:40:15.683Z,101907.13
2022-08-07T06:41:29.409Z,101911.22
2022-08-07T06:43:59.263Z,101908.66
2022-08-07T06:46:12.256Z,101914.28
2022-08-07T06:48:14.065Z,101917.91
2022-08-07T06:50:17.663Z,101912.72
2022-08-07T06:52:31.410Z,101913.69
2022-08-07T06:55:32.250Z,101916.28
2022-08-07T06:56:59.061Z,101910.00
2022-08-07T07:00:13.971Z,101906.53
2022-08-07T07:01:23.581Z,101913.56
2022-08-07T07:03:37.320Z,101915.53
2022-08-07T07:06:04.955Z,101909.34
2022-08-07T07:08:07.312Z,101915.56
2022-08-07T07:10:11.692Z,101923.66
2022-08-07T07:12:37.062Z,101907.63
2022-08-07T07:14:47.779Z,101918.38
2022-08-07T07:16:51.226Z,101905.91
2022-08-07T07:18:55.879Z,101912.13
2022-08-07T07:20:59.270Z,101911.19
2022-08-07T07:24:09.091Z,101914.91
2022-08-07T07:26:34.379Z,101915.78
2022-08-07T07:27:56.190Z,101914.91
2022-08-07T07:30:08.846Z,101907.69
2022-08-07T07:32:11.457Z,101914.84
2022-08-07T07:34:15.650Z,101903.09
2022-08-07T07:36:17.556Z,101902.22
2022-08-07T07:38:20.762Z,101907.69
2022-08-07T07:40:26.113Z,101902.25
2022-08-07T07:42:33.261Z,101898.56
2022-08-07T07:44:34.967Z,101900.38
2022-08-07T07:46:54.661Z,101906.75
2022-08-07T07:49:00.204Z,101898.56
2022-08-07T07:51:20.832Z,101900.47
2022-08-07T07:53:23.227Z,101893.16
2022-08-07T07:55:27.860Z,101895.06
2022-08-07T07:57:43.612Z,101885.81
2022-08-07T07:59:53.957Z,101897.66
2022-08-07T08:02:01.530Z,101895.91
2022-08-07T08:04:11.668Z,101886.94
2022-08-07T08:06:13.567Z,101887.41
2022-08-07T08:08:36.328Z,101881.38
2022-08-07T08:10:38.652Z,101890.25
2022-08-07T08:12:58.886Z,101887.53
2022-08-07T08:15:01.325Z,101884.72
2022-08-07T08:17:55.554Z,101888.06
2022-08-07T08:20:22.471Z,101885.25
2022-08-07T08:21:55.749Z,101879.81
2022-08-07T08:24:05.348Z,101878.22
2022-08-07T08:26:20.031Z,101882.84
2022-08-07T08:28:23.951Z,101875.47
2022-08-07T08:30:42.908Z,101872.03
2022-08-07T08:32:54.660Z,101880.41
2022-08-07T08:34:57.973Z,101876.13
2022-08-07T08:36:59.631Z,101869.72
2022-08-07T08:39:02.678Z,101875.97
2022-08-07T08:41:05.696Z,101870.28
2022-08-07T08:43:09.281Z,101871.25
2022-08-07T08:45:13.506Z,101870.44
2022-08-07T08:47:17.497Z,101872.66
2022-08-07T08:49:33.116Z,101857.13
2022-08-07T08:52:01.141Z,101858.13
2022-08-07T08:54:00.479Z,101859.31
2022-08-07T08:56:03.714Z,101860.88
2022-08-07T08:58:06.914Z,101856.44
2022-08-07T09:00:14.887Z,101855.75
2022-08-07T09:02:18.443Z,101851.31
2022-08-07T09:04:40.669Z,101859.84
2022-08-07T09:06:47.853Z,101852.66
2022-08-07T09:08:52.106Z,101843.50
2022-08-07T09:10:56.545Z,101853.22
2022-08-07T09:13:02.476Z,101859.28
2022-08-07T09:16:23.251Z,101850.81
2022-08-07T09:17:59.337Z,101849.97
2022-08-07T09:20:34.702Z,101856.88
2022-08-07T09:24:33.137Z,101852.53
2022-08-07T09:25:17.588Z,101851.50
2022-08-07T09:27:30.315Z,101855.28
2022-08-07T09:30:04.954Z,101861.66
2022-08-07T09:31:56.308Z,101857.19
2022-08-07T09:34:04.485Z,101861.06
2022-08-07T09:36:09.658Z,101856.41
2022-08-07T09:38:13.833Z,101848.91
2022-08-07T09:40:17.850Z,101853.69
2022-08-07T09:42:24.904Z,101857.28
2022-08-07T09:44:46.591Z,101852.16
2022-08-07T09:47:51.467Z,101848.50
2022-08-07T09:50:04.079Z,101849.50
2022-08-07T09:52:09.973Z,101849.91
2022-08-07T09:54:16.247Z,101847.72
2022-08-07T09:56:37.406Z,101846.72
2022-08-07T09:59:13.793Z,101851.13
2022-08-07T10:01:50.542Z,101845.88
2022-08-07T10:04:05.008Z,101840.78
2022-08-07T10:06:24.277Z,101832.66
2022-08-07T10:08:41.076Z,101834.94
2022-08-07T10:11:16.895Z,101828.03
2022-08-07T10:13:55.436Z,101833.00
2022-08-07T10:15:50.055Z,101819.78
2022-08-07T10:18:01.119Z,101824.94
2022-08-07T10:20:08.422Z,101814.53
2022-08-07T10:22:38.692Z,101833.69
2022-08-07T10:25:05.412Z,101824.88
2022-08-07T10:27:12.774Z,101811.91
2022-08-07T10:29:21.243Z,101815.03
2022-08-07T10:31:49.745Z,101815.69
2022-08-07T10:34:05.914Z,101821.44
2022-08-07T10:36:29.867Z,101818.47
2022-08-07T10:38:49.260Z,101803.66
2022-08-07T10:40:52.182Z,101817.22
2022-08-07T10:42:59.116Z,101815.63
2022-08-07T10:45:01.553Z,101807.28
2022-08-07T10:47:05.850Z,101818.75
2022-08-07T10:49:14.908Z,101806.44
2022-08-07T10:51:39.315Z,101794.59
2022-08-07T10:53:44.135Z,101806.84
2022-08-07T10:55:47.502Z,101797.34
2022-08-07T10:57:51.470Z,101796.22
2022-08-07T11:00:01.906Z,101793.19
2022-08-07T11:02:12.330Z,101793.72
2022-08-07T11:04:31.442Z,101790.44
2022-08-07T11:06:36.716Z,101787.28
2022-08-07T11:08:40.338Z,101781.31
2022-08-07T11:10:42.678Z,101778.88
2022-08-07T11:13:02.266Z,101775.91
2022-08-07T11:15:14.667Z,101779.47
2022-08-07T11:17:33.372Z,101771.66
2022-08-07T11:19:43.341Z,101769.66
2022-08-07T11:21:45.584Z,101762.91
2022-08-07T11:23:48.330Z,101767.53
2022-08-07T11:25:51.169Z,101766.56
2022-08-07T11:28:02.605Z,101756.72
2022-08-07T11:30:18.532Z,101762.72
2022-08-07T11:32:25.686Z,101763.06
2022-08-07T11:34:29.280Z,101754.91
2022-08-07T11:36:34.766Z,101754.63
2022-08-07T11:38:37.505Z,101749.19
2022-08-07T11:40:49.448Z,101749.00
2022-08-07T11:42:53.380Z,101739.28
2022-08-07T11:44:58.764Z,101743.81
2022-08-07T11:47:04.741Z,101747.88
2022-08-07T11:50:11.305Z,101742.16
2022-08-07T11:51:52.771Z,101735.00
2022-08-07T11:53:57.763Z,101730.91
2022-08-07T11:56:26.752Z,101731.22
2022-08-07T11:58:33.304Z,101724.56
2022-08-07T12:00:38.369Z,101732.03
2022-08-07T12:02:57.568Z,101731.13
2022-08-07T12:05:09.026Z,101724.41
2022-08-07T12:07:27.338Z,101725.75
2022-08-07T12:09:32.740Z,101724.31
2022-08-07T12:11:35.476Z,101727.63
2022-08-07T12:13:47.818Z,101723.69
2022-08-07T12:16:06.901Z,101734.09
2022-08-07T12:18:13.118Z,101721.59
2022-08-07T12:20:30.783Z,101711.25
2022-08-07T12:22:46.949Z,101725.00
2022-08-07T12:25:02.222Z,101728.88
2022-08-07T12:27:16.357Z,101716.13
2022-08-07T12:29:37.954Z,101711.44
2022-08-07T12:32:01.902Z,101710.94
2022-08-07T12:34:04.644Z,101716.03
2022-08-07T12:36:14.527Z,101708.69
2022-08-07T12:38:36.809Z,101710.50
2022-08-07T12:40:47.780Z,101694.16
2022-08-07T12:42:55.169Z,101702.78
2022-08-07T12:44:59.386Z,101698.84
2022-08-07T12:47:03.457Z,101691.97
2022-08-07T12:49:39.776Z,101692.25
2022-08-07T12:51:51.302Z,101702.09
2022-08-07T12:54:03.090Z,101679.81
2022-08-07T12:56:26.637Z,101693.50
2022-08-07T12:58:35.116Z,101694.81
2022-08-07T13:00:41.707Z,101690.09
2022-08-07T13:02:59.582Z,101679.75
2022-08-07T13:05:14.662Z,101692.53
2022-08-07T13:08:12.215Z,101675.50
2022-08-07T13:10:38.240Z,101681.97
2022-08-07T13:12:33.735Z,101672.28
2022-08-07T13:14:38.430Z,101676.81
2022-08-07T13:16:55.358Z,101683.38
2022-08-07T13:18:59.708Z,101672.25
2022-08-07T13:21:02.790Z,101679.16
2022-08-07T13:24:02.184Z,101678.41
2022-08-07T13:25:30.605Z,101675.94
2022-08-07T13:28:10.844Z,101676.84
2022-08-07T13:29:56.732Z,101664.84
2022-08-07T13:32:31.567Z,101666.19
2022-08-07T13:34:33.999Z,101664.97
2022-08-07T13:36:40.554Z,101651.53
2022-08-07T13:38:47.704Z,101649.91
2022-08-07T13:40:54.296Z,101669.13
2022-08-07T13:42:56.791Z,101657.75
2022-08-07T13:45:20.851Z,101648.81
2022-08-07T13:47:25.094Z,101662.09
2022-08-07T13:50:34.002Z,101663.63
2022-08-07T13:52:05.270Z,101649.69
2022-08-07T13:54:16.325Z,101651.00
2022-08-07T13:56:35.319Z,101641.44
2022-08-07T13:58:42.566Z,101642.69
2022-08-07T14:00:58.559Z,101646.13
2022-08-07T14:03:00.131Z,101639.53
2022-08-07T14:05:02.962Z,101642.63
2022-08-07T14:07:06.259Z,101638.97
2022-08-07T14:09:17.054Z,101649.25
2022-08-07T14:11:53.398Z,101634.63
2022-08-07T14:14:03.372Z,101634.94
2022-08-07T14:16:06.403Z,101619.44
2022-08-07T14:18:29.225Z,101627.31
2022-08-07T14:20:40.602Z,101622.22
2022-08-07T14:22:46.642Z,101618.16
2022-08-07T14:24:49.994Z,101618.16
2022-08-07T14:26:54.657Z,101632.25
2022-08-07T14:29:04.489Z,101617.34
2022-08-07T14:31:12.334Z,101620.28
2022-08-07T14:33:14.888Z,101623.88
2022-08-07T14:35:45.176Z,101619.56
2022-08-07T14:37:39.992Z,101610.81
2022-08-07T14:40:17.299Z,101609.59
2022-08-07T14:42:17.145Z,101609.78
2022-08-07T14:44:22.459Z,101604.53
2022-08-07T14:46:31.034Z,101603.47
2022-08-07T14:48:34.685Z,101602.19
2022-08-07T14:50:37.543Z,101602.84
2022-08-07T14:52:39.389Z,101599.75
2022-08-07T14:57:05.829Z,101597.56
2022-08-07T14:59:14.101Z,101595.31
2022-08-07T15:03:53.296Z,101592.81
2022-08-07T15:08:21.857Z,101587.03
2022-08-07T15:10:33.960Z,101582.03
2022-08-07T15:12:36.932Z,101591.66
2022-08-07T15:14:57.742Z,101596.47
2022-08-07T15:17:00.576Z,101588.91
2022-08-07T15:19:02.686Z,101581.31
2022-08-07T15:25:02.847Z,101581.47
2022-08-07T15:25:56.147Z,101582.91
2022-08-07T15:28:30.970Z,101589.75
2022-08-07T15:30:21.861Z,101596.09
2022-08-07T15:32:39.351Z,101579.00
2022-08-07T15:37:10.611Z,101579.31
2022-08-07T15:39:12.269Z,101575.41
2022-08-07T15:41:23.806Z,101580.09
2022-08-07T15:43:55.645Z,101574.56
2022-08-07T15:46:04.523Z,101566.91
2022-08-07T15:48:22.423Z,101569.53
2022-08-07T15:51:01.584Z,101571.78
2022-08-07T15:52:51.876Z,101568.13
2022-08-07T15:54:54.043Z,101579.44
2022-08-07T15:56:56.186Z,101576.22
2022-08-07T15:59:01.273Z,101566.06
2022-08-07T16:01:03.294Z,101571.53
2022-08-07T16:03:06.907Z,101553.31
2022-08-07T16:05:23.101Z,101552.97
2022-08-07T16:08:31.347Z,101552.38
2022-08-07T16:09:57.474Z,101557.63
2022-08-07T16:12:03.149Z,101563.53
2022-08-07T16:14:11.787Z,101571.69
2022-08-07T16:16:43.005Z,101554.25
2022-08-07T16:18:50.380Z,101565.88
2022-08-07T16:21:42.879Z,101557.09
2022-08-07T16:23:53.043Z,101564.00
2022-08-07T16:25:54.631Z,101562.69
2022-08-07T16:27:59.923Z,101568.22
2022-08-07T16:30:10.356Z,101557.28
2022-08-07T16:32:34.919Z,101558.47
2022-08-07T16:34:39.340Z,101551.31
2022-08-07T16:37:02.420Z,101554.34
2022-08-07T16:39:40.504Z,101558.78
2022-08-07T16:42:01.732Z,101562.38
2022-08-07T16:44:46.271Z,101564.84
2022-08-07T16:47:04.952Z,101560.75
2022-08-07T16:50:20.740Z,101553.09
2022-08-07T16:51:57.858Z,101553.03
2022-08-07T16:54:19.147Z,101556.66
2022-08-07T16:56:25.161Z,101556.47
2022-08-07T16:58:54.251Z,101552.41
2022-08-07T17:01:00.571Z,101561.88
2022-08-07T17:03:09.221Z,101560.88
2022-08-07T17:06:02.336Z,101545.00
2022-08-07T17:07:51.584Z,101550.72
2022-08-07T17:10:06.561Z,101547.97
2022-08-07T17:12:44.765Z,101554.72
2022-08-07T17:14:33.968Z,101545.31
2022-08-07T17:16:39.905Z,101546.81
2022-08-07T17:18:49.478Z,101546.00
2022-08-07T17:20:54.733Z,101549.91
2022-08-07T17:22:57.838Z,101551.06
2022-08-07T17:25:03.654Z,101551.72
2022-08-07T17:27:11.214Z,101541.06
2022-08-07T17:30:14.988Z,101542.50
2022-08-07T17:32:02.594Z,101550.25
2022-08-07T17:34:33.266Z,101541.47
2022-08-07T17:36:33.764Z,101537.66
2022-08-07T17:39:00.863Z,101540.97
2022-08-07T17:42:00.729Z,101538.56
2022-08-07T17:44:01.801Z,101544.72
2022-08-07T17:45:51.063Z,101538.56
2022-08-07T17:47:58.353Z,101538.84
2022-08-07T17:50:01.413Z,101536.81
2022-08-07T17:52:10.529Z,101537.72
2022-08-07T17:54:29.720Z,101534.94
2022-08-07T17:56:49.894Z,101542.53
2022-08-07T17:58:57.470Z,101544.75
2022-08-07T18:00:59.496Z,101540.44
2022-08-07T18:03:09.096Z,101542.38
2022-08-07T18:05:21.620Z,101540.69
2022-08-07T18:07:37.367Z,101546.66
2022-08-07T18:10:05.093Z,101540.97
2022-08-07T18:12:19.669Z,101545.13
2022-08-07T18:14:31.545Z,101549.44
2022-08-07T18:16:58.047Z,101539.41
2022-08-07T18:21:08.958Z,101543.72
2022-08-07T18:21:53.399Z,101550.63
2022-08-07T18:23:59.833Z,101550.59
2022-08-07T18:26:03.567Z,101556.72
2022-08-07T18:28:21.550Z,101555.38
2022-08-07T18:30:36.867Z,101560.53
2022-08-07T18:33:11.939Z,101557.84
2022-08-07T18:35:16.765Z,101546.31
2022-08-07T18:38:56.218Z,101564.72
2022-08-07T18:40:05.476Z,101569.44
2022-08-07T18:42:13.494Z,101567.47
2022-08-07T18:44:23.843Z,101563.44
2022-08-07T18:46:28.220Z,101566.75
2022-08-07T18:49:23.894Z,101567.09
2022-08-07T18:51:04.361Z,101571.50
2022-08-07T18:53:12.620Z,101574.69
2022-08-07T18:55:43.151Z,101576.34
2022-08-07T18:57:43.117Z,101577.19
2022-08-07T19:00:04.251Z,101585.41
2022-08-07T19:02:34.108Z,101580.69
2022-08-07T19:04:57.684Z,101578.63
2022-08-07T19:07:04.337Z,101585.03
2022-08-07T19:09:15.905Z,101582.81
2022-08-07T19:11:38.581Z,101585.91
2022-08-07T19:14:00.684Z,101593.97
2022-08-07T19:17:00.748Z,101584.22
2022-08-07T19:18:44.972Z,101592.47
2022-08-07T19:21:09.871Z,101596.94
2022-08-07T19:23:18.685Z,101600.44
2022-08-07T19:26:21.644Z,101605.13
2022-08-07T19:28:56.835Z,101611.81
2022-08-07T19:30:57.947Z,101610.72
2022-08-07T19:32:35.790Z,101612.59
2022-08-07T19:34:49.098Z,101612.59
2022-08-07T19:36:53.628Z,101625.84
2022-08-07T19:39:11.789Z,101629.00
2022-08-07T19:41:14.692Z,101620.19
2022-08-07T19:43:21.664Z,101630.16
2022-08-07T19:46:07.307Z,101623.31
2022-08-07T19:48:02.758Z,101628.75
2022-08-07T19:50:44.552Z,101625.00
2022-08-07T19:52:27.924Z,101626.31
2022-08-07T19:54:44.003Z,101621.78
2022-08-07T19:57:56.826Z,101632.50
2022-08-07T19:59:15.852Z,101634.88
2022-08-07T20:01:17.510Z,101631.56
2022-08-07T20:03:34.751Z,101637.00
2022-08-07T20:06:00.944Z,101639.56
2022-08-07T20:08:01.174Z,101642.00
2022-08-07T20:10:36.797Z,101641.84
2022-08-07T20:12:34.902Z,101649.50
2022-08-07T20:14:38.937Z,101646.13
2022-08-07T20:16:56.475Z,101654.53
2022-08-07T20:18:58.433Z,101653.81
2022-08-07T20:20:59.957Z,101651.94
2022-08-07T20:23:10.876Z,101649.38
2022-08-07T20:25:23.719Z,101649.31
2022-08-07T20:27:47.441Z,101649.19
2022-08-07T20:29:56.752Z,101652.22
2022-08-07T20:32:01.123Z,101663.25
2022-08-07T20:34:02.663Z,101664.94
2022-08-07T20:36:04.374Z,101657.78
2022-08-07T20:38:07.908Z,101660.91
2022-08-07T20:40:32.062Z,101655.69
2022-08-07T20:42:33.729Z,101664.19
2022-08-07T20:44:37.987Z,101658.59
2022-08-07T20:46:42.884Z,101663.41
2022-08-07T20:49:55.130Z,101675.16
2022-08-07T20:51:10.010Z,101668.69
2022-08-07T20:53:12.397Z,101676.41
2022-08-07T20:55:13.957Z,101684.13
2022-08-07T20:57:18.857Z,101683.56
2022-08-07T21:00:04.990Z,101679.44
2022-08-07T21:01:55.259Z,101688.38
2022-08-07T21:04:19.899Z,101696.66
2022-08-07T21:06:28.075Z,101690.28
2022-08-07T21:08:37.653Z,101687.44
2022-08-07T21:10:40.602Z,101691.19
2022-08-07T21:12:42.121Z,101696.88
2022-08-07T21:14:53.757Z,101693.06
2022-08-07T21:18:01.265Z,101703.38
2022-08-07T21:19:19.500Z,101687.75
2022-08-07T21:21:21.105Z,101691.25
2022-08-07T21:23:33.212Z,101702.03
2022-08-07T21:25:56.357Z,101696.97
2022-08-07T21:28:02.348Z,101695.16
2022-08-07T21:30:06.358Z,101689.66
2022-08-07T21:32:47.679Z,101696.88
2022-08-07T21:34:32.572Z,101697.16
2022-08-07T21:36:34.960Z,101693.28
2022-08-07T21:38:39.236Z,101698.06
2022-08-07T21:40:47.671Z,101697.06
2022-08-07T21:42:54.820Z,101688.44
2022-08-07T21:44:56.982Z,101697.25
2022-08-07T21:47:01.498Z,101696.03
2022-08-07T21:49:04.748Z,101695.34
2022-08-07T21:51:20.017Z,101703.81
2022-08-07T21:53:29.287Z,101705.34
2022-08-07T21:55:31.197Z,101711.19
2022-08-07T21:57:44.422Z,101717.38
2022-08-07T22:00:05.120Z,101706.81
2022-08-07T22:02:13.066Z,101710.03
2022-08-07T22:04:17.649Z,101710.44
2022-08-07T22:06:30.761Z,101712.38
2022-08-07T22:08:34.182Z,101724.31
2022-08-07T22:10:35.763Z,101714.28
2022-08-07T22:12:38.729Z,101718.00
2022-08-07T22:14:59.998Z,101725.22
2022-08-07T22:17:02.035Z,101734.19
2022-08-07T22:19:08.658Z,101733.47
2022-08-07T22:21:14.617Z,101736.19
2022-08-07T22:23:17.689Z,101733.44
2022-08-07T22:25:26.909Z,101739.84
2022-08-07T22:27:51.175Z,101735.25
2022-08-07T22:29:54.718Z,101746.19
2022-08-07T22:32:05.319Z,101746.28
2022-08-07T22:34:13.229Z,101750.84
2022-08-07T22:36:17.335Z,101750.00
2022-08-07T22:38:27.066Z,101747.34
2022-08-07T22:40:29.858Z,101753.53
2022-08-07T22:42:31.396Z,101756.38
2022-08-07T22:44:35.239Z,101760.81
2022-08-07T22:47:04.155Z,101761.84
2022-08-07T22:49:16.714Z,101756.38
2022-08-07T22:51:36.499Z,101760.94
2022-08-07T22:54:07.030Z,101763.50
2022-08-07T22:56:09.687Z,101767.38
2022-08-07T22:58:18.197Z,101757.53
2022-08-07T23:00:21.314Z,101759.31
2022-08-07T23:02:30.943Z,101761.03
2022-08-07T23:04:57.915Z,101752.06
2022-08-07T23:07:28.398Z,101762.00
2022-08-07T23:10:04.110Z,101758.41
2022-08-07T23:12:04.009Z,101752.13
2022-08-07T23:14:16.107Z,101755.75
2022-08-07T23:16:46.769Z,101745.06
2022-08-07T23:18:42.170Z,101757.63
2022-08-07T23:20:53.174Z,101752.16
2022-08-07T23:23:05.127Z,101762.09
2022-08-07T23:25:13.825Z,101766.59
2022-08-07T23:27:33.777Z,101756.63
2022-08-07T23:30:38.666Z,101763.00
2022-08-07T23:34:21.310Z,101763.00
2022-08-07T23:34:47.617Z,101761.19
2022-08-07T23:37:17.943Z,101752.19
2022-08-07T23:39:17.470Z,101759.41
2022-08-07T23:41:33.446Z,101751.38
2022-08-07T23:43:44.020Z,101753.97
2022-08-07T23:46:03.690Z,101754.06
2022-08-07T23:50:16.647Z,101742.41
2022-08-07T23:53:00.669Z,101749.56
2022-08-07T23:54:46.808Z,101755.00
2022-08-07T23:56:55.309Z,101743.28
2022-08-07T23:58:59.365Z,101747.84
